sensor_id;sensor_type;location;lat;lon;timestamp;P1;durP1;ratioP1;P2;durP2;ratioP2
59824;SDS011;45703;50.898;6.054;2023-08-31T00:00:09;7.13;;;3.13;;
59824;SDS011;45703;50.898;6.054;2023-08-31T00:02:36;9.05;;;3.83;;
59824;SDS011;45703;50.898;6.054;2023-08-31T00:05:01;12.77;;;5.03;;
59824;SDS011;45703;50.898;6.054;2023-08-31T00:07:30;10.18;;;5.15;;
59824;SDS011;45703;50.898;6.054;2023-08-31T00:09:55;10.57;;;5.70;;
59824;SDS011;45703;50.898;6.054;2023-08-31T00:12:21;8.27;;;4.30;;
59824;SDS011;45703;50.898;6.054;2023-08-31T00:14:47;9.35;;;4.25;;
59824;SDS011;45703;50.898;6.054;2023-08-31T00:17:14;11.63;;;3.55;;
59824;SDS011;45703;50.898;6.054;2023-08-31T00:19:40;7.63;;;3.42;;
59824;SDS011;45703;50.898;6.054;2023-08-31T00:22:05;7.85;;;2.85;;
59824;SDS011;45703;50.898;6.054;2023-08-31T00:24:30;8.45;;;3.00;;
59824;SDS011;45703;50.898;6.054;2023-08-31T00:26:58;7.35;;;2.50;;
59824;SDS011;45703;50.898;6.054;2023-08-31T00:29:24;7.97;;;2.40;;
59824;SDS011;45703;50.898;6.054;2023-08-31T00:31:50;7.53;;;2.92;;
59824;SDS011;45703;50.898;6.054;2023-08-31T00:34:18;7.25;;;2.80;;
59824;SDS011;45703;50.898;6.054;2023-08-31T00:36:44;7.35;;;2.58;;
59824;SDS011;45703;50.898;6.054;2023-08-31T00:39:15;6.95;;;2.60;;
59824;SDS011;45703;50.898;6.054;2023-08-31T00:41:45;6.90;;;2.38;;
59824;SDS011;45703;50.898;6.054;2023-08-31T00:44:11;6.47;;;2.20;;
59824;SDS011;45703;50.898;6.054;2023-08-31T00:46:37;7.22;;;2.28;;
59824;SDS011;45703;50.898;6.054;2023-08-31T00:49:02;6.05;;;2.20;;
59824;SDS011;45703;50.898;6.054;2023-08-31T00:51:29;7.00;;;2.13;;
59824;SDS011;45703;50.898;6.054;2023-08-31T00:53:54;6.85;;;2.17;;
59824;SDS011;45703;50.898;6.054;2023-08-31T00:56:20;8.45;;;2.45;;
59824;SDS011;45703;50.898;6.054;2023-08-31T00:58:46;5.82;;;2.00;;
59824;SDS011;45703;50.898;6.054;2023-08-31T01:09:50;6.72;;;2.10;;
59824;SDS011;45703;50.898;6.054;2023-08-31T01:12:26;5.43;;;1.70;;
59824;SDS011;45703;50.898;6.054;2023-08-31T01:15:02;6.68;;;2.05;;
59824;SDS011;45703;50.898;6.054;2023-08-31T01:17:32;6.55;;;1.80;;
59824;SDS011;45703;50.898;6.054;2023-08-31T01:20:01;6.00;;;1.80;;
59824;SDS011;45703;50.898;6.054;2023-08-31T01:22:38;5.60;;;1.98;;
59824;SDS011;45703;50.898;6.054;2023-08-31T01:25:08;6.00;;;1.80;;
59824;SDS011;45703;50.898;6.054;2023-08-31T01:27:45;6.07;;;1.90;;
59824;SDS011;45703;50.898;6.054;2023-08-31T01:30:11;5.72;;;1.90;;
59824;SDS011;45703;50.898;6.054;2023-08-31T01:32:36;5.68;;;1.70;;
59824;SDS011;45703;50.898;6.054;2023-08-31T01:35:02;5.15;;;1.55;;
59824;SDS011;45703;50.898;6.054;2023-08-31T01:40:09;5.40;;;1.80;;
59824;SDS011;45703;50.898;6.054;2023-08-31T01:42:57;5.03;;;1.85;;
59824;SDS011;45703;50.898;6.054;2023-08-31T01:45:23;5.10;;;1.63;;
59824;SDS011;45703;50.898;6.054;2023-08-31T01:47:50;4.65;;;1.65;;
59824;SDS011;45703;50.898;6.054;2023-08-31T01:50:16;7.65;;;2.08;;
59824;SDS011;45703;50.898;6.054;2023-08-31T01:52:41;5.75;;;1.98;;
59824;SDS011;45703;50.898;6.054;2023-08-31T01:55:07;5.95;;;1.63;;
59824;SDS011;45703;50.898;6.054;2023-08-31T01:57:32;5.55;;;1.67;;
59824;SDS011;45703;50.898;6.054;2023-08-31T01:59:59;5.60;;;1.77;;
59824;SDS011;45703;50.898;6.054;2023-08-31T02:02:25;6.03;;;2.00;;
59824;SDS011;45703;50.898;6.054;2023-08-31T02:04:50;5.45;;;1.90;;
59824;SDS011;45703;50.898;6.054;2023-08-31T02:07:17;5.75;;;1.80;;
59824;SDS011;45703;50.898;6.054;2023-08-31T02:09:42;5.03;;;1.67;;
59824;SDS011;45703;50.898;6.054;2023-08-31T02:12:08;5.75;;;1.80;;
59824;SDS011;45703;50.898;6.054;2023-08-31T02:14:36;5.80;;;2.00;;
59824;SDS011;45703;50.898;6.054;2023-08-31T02:17:01;5.78;;;1.90;;
59824;SDS011;45703;50.898;6.054;2023-08-31T02:19:27;5.18;;;1.70;;
59824;SDS011;45703;50.898;6.054;2023-08-31T02:21:53;6.78;;;1.90;;
59824;SDS011;45703;50.898;6.054;2023-08-31T02:24:18;5.97;;;1.98;;
59824;SDS011;45703;50.898;6.054;2023-08-31T02:26:44;5.68;;;1.92;;
59824;SDS011;45703;50.898;6.054;2023-08-31T02:29:10;5.72;;;2.05;;
59824;SDS011;45703;50.898;6.054;2023-08-31T02:31:35;7.90;;;2.38;;
59824;SDS011;45703;50.898;6.054;2023-08-31T02:34:02;5.93;;;1.92;;
59824;SDS011;45703;50.898;6.054;2023-08-31T02:36:27;6.03;;;2.22;;
59824;SDS011;45703;50.898;6.054;2023-08-31T02:38:53;8.73;;;2.53;;
59824;SDS011;45703;50.898;6.054;2023-08-31T02:41:18;6.65;;;2.25;;
59824;SDS011;45703;50.898;6.054;2023-08-31T02:43:44;6.75;;;2.40;;
59824;SDS011;45703;50.898;6.054;2023-08-31T02:46:09;5.90;;;2.40;;
59824;SDS011;45703;50.898;6.054;2023-08-31T02:48:37;6.35;;;2.58;;
59824;SDS011;45703;50.898;6.054;2023-08-31T02:51:03;6.93;;;2.83;;
59824;SDS011;45703;50.898;6.054;2023-08-31T02:53:29;7.97;;;2.80;;
59824;SDS011;45703;50.898;6.054;2023-08-31T02:55:55;6.13;;;2.42;;
59824;SDS011;45703;50.898;6.054;2023-08-31T02:58:21;6.53;;;2.58;;
59824;SDS011;45703;50.898;6.054;2023-08-31T03:00:47;7.10;;;3.10;;
59824;SDS011;45703;50.898;6.054;2023-08-31T03:03:14;6.22;;;2.30;;
59824;SDS011;45703;50.898;6.054;2023-08-31T03:05:40;6.25;;;2.55;;
59824;SDS011;45703;50.898;6.054;2023-08-31T03:08:06;7.55;;;2.90;;
59824;SDS011;45703;50.898;6.054;2023-08-31T03:10:33;9.40;;;2.80;;
59824;SDS011;45703;50.898;6.054;2023-08-31T03:13:01;7.97;;;2.90;;
59824;SDS011;45703;50.898;6.054;2023-08-31T03:15:29;6.70;;;2.80;;
59824;SDS011;45703;50.898;6.054;2023-08-31T03:17:57;9.27;;;2.88;;
59824;SDS011;45703;50.898;6.054;2023-08-31T03:20:22;7.03;;;2.60;;
59824;SDS011;45703;50.898;6.054;2023-08-31T03:22:48;7.20;;;2.63;;
59824;SDS011;45703;50.898;6.054;2023-08-31T03:25:15;6.85;;;2.47;;
59824;SDS011;45703;50.898;6.054;2023-08-31T03:27:41;7.13;;;2.70;;
59824;SDS011;45703;50.898;6.054;2023-08-31T03:30:09;7.00;;;3.00;;
59824;SDS011;45703;50.898;6.054;2023-08-31T03:32:35;7.93;;;2.80;;
59824;SDS011;45703;50.898;6.054;2023-08-31T03:35:04;6.68;;;2.85;;
59824;SDS011;45703;50.898;6.054;2023-08-31T03:37:29;8.15;;;2.80;;
59824;SDS011;45703;50.898;6.054;2023-08-31T03:39:57;7.28;;;2.78;;
59824;SDS011;45703;50.898;6.054;2023-08-31T03:42:22;5.63;;;2.33;;
59824;SDS011;45703;50.898;6.054;2023-08-31T03:44:50;6.97;;;2.42;;
59824;SDS011;45703;50.898;6.054;2023-08-31T03:47:15;7.70;;;2.90;;
59824;SDS011;45703;50.898;6.054;2023-08-31T03:49:41;8.30;;;2.60;;
59824;SDS011;45703;50.898;6.054;2023-08-31T03:52:06;8.60;;;2.78;;
59824;SDS011;45703;50.898;6.054;2023-08-31T03:54:31;8.35;;;2.75;;
59824;SDS011;45703;50.898;6.054;2023-08-31T03:56:57;7.68;;;2.75;;
59824;SDS011;45703;50.898;6.054;2023-08-31T03:59:25;6.20;;;2.67;;
59824;SDS011;45703;50.898;6.054;2023-08-31T04:01:50;6.88;;;2.63;;
59824;SDS011;45703;50.898;6.054;2023-08-31T04:04:15;8.15;;;2.90;;
59824;SDS011;45703;50.898;6.054;2023-08-31T04:06:41;7.45;;;2.92;;
59824;SDS011;45703;50.898;6.054;2023-08-31T04:09:06;7.43;;;2.70;;
59824;SDS011;45703;50.898;6.054;2023-08-31T04:11:32;6.97;;;2.70;;
59824;SDS011;45703;50.898;6.054;2023-08-31T04:13:58;7.07;;;2.63;;
59824;SDS011;45703;50.898;6.054;2023-08-31T04:16:23;8.15;;;2.97;;
59824;SDS011;45703;50.898;6.054;2023-08-31T04:18:48;7.03;;;2.65;;
59824;SDS011;45703;50.898;6.054;2023-08-31T04:21:16;7.45;;;3.10;;
59824;SDS011;45703;50.898;6.054;2023-08-31T04:23:42;6.93;;;2.60;;
59824;SDS011;45703;50.898;6.054;2023-08-31T04:26:14;8.10;;;2.65;;
59824;SDS011;45703;50.898;6.054;2023-08-31T04:28:40;6.70;;;2.70;;
59824;SDS011;45703;50.898;6.054;2023-08-31T04:31:06;6.28;;;2.70;;
59824;SDS011;45703;50.898;6.054;2023-08-31T04:33:35;8.55;;;3.00;;
59824;SDS011;45703;50.898;6.054;2023-08-31T04:36:01;7.15;;;2.30;;
59824;SDS011;45703;50.898;6.054;2023-08-31T04:38:28;7.60;;;2.63;;
59824;SDS011;45703;50.898;6.054;2023-08-31T04:40:54;7.25;;;2.97;;
59824;SDS011;45703;50.898;6.054;2023-08-31T04:43:19;7.68;;;2.70;;
59824;SDS011;45703;50.898;6.054;2023-08-31T04:45:45;8.05;;;2.83;;
59824;SDS011;45703;50.898;6.054;2023-08-31T04:48:10;6.55;;;3.05;;
59824;SDS011;45703;50.898;6.054;2023-08-31T04:50:35;8.73;;;2.72;;
59824;SDS011;45703;50.898;6.054;2023-08-31T04:53:01;7.30;;;2.35;;
59824;SDS011;45703;50.898;6.054;2023-08-31T04:55:26;7.05;;;2.50;;
59824;SDS011;45703;50.898;6.054;2023-08-31T04:57:51;8.30;;;2.83;;
59824;SDS011;45703;50.898;6.054;2023-08-31T05:00:17;7.40;;;2.50;;
59824;SDS011;45703;50.898;6.054;2023-08-31T05:02:43;7.32;;;2.72;;
59824;SDS011;45703;50.898;6.054;2023-08-31T05:05:10;6.35;;;2.50;;
59824;SDS011;45703;50.898;6.054;2023-08-31T05:07:36;6.25;;;2.28;;
59824;SDS011;45703;50.898;6.054;2023-08-31T05:10:03;6.95;;;2.45;;
59824;SDS011;45703;50.898;6.054;2023-08-31T05:12:29;7.82;;;2.45;;
59824;SDS011;45703;50.898;6.054;2023-08-31T05:14:55;7.22;;;2.42;;
59824;SDS011;45703;50.898;6.054;2023-08-31T05:17:21;5.95;;;2.05;;
59824;SDS011;45703;50.898;6.054;2023-08-31T05:19:47;6.35;;;2.28;;
59824;SDS011;45703;50.898;6.054;2023-08-31T05:22:12;6.20;;;2.38;;
59824;SDS011;45703;50.898;6.054;2023-08-31T05:24:38;6.65;;;2.08;;
59824;SDS011;45703;50.898;6.054;2023-08-31T05:27:03;6.28;;;2.28;;
59824;SDS011;45703;50.898;6.054;2023-08-31T05:29:29;7.13;;;2.40;;
59824;SDS011;45703;50.898;6.054;2023-08-31T05:31:55;7.53;;;2.40;;
59824;SDS011;45703;50.898;6.054;2023-08-31T05:34:20;5.80;;;1.88;;
59824;SDS011;45703;50.898;6.054;2023-08-31T05:36:48;7.60;;;2.20;;
59824;SDS011;45703;50.898;6.054;2023-08-31T05:39:16;6.60;;;2.55;;
59824;SDS011;45703;50.898;6.054;2023-08-31T05:41:44;7.85;;;2.65;;
59824;SDS011;45703;50.898;6.054;2023-08-31T05:44:09;6.68;;;2.10;;
59824;SDS011;45703;50.898;6.054;2023-08-31T05:46:35;8.13;;;2.65;;
59824;SDS011;45703;50.898;6.054;2023-08-31T05:49:00;8.43;;;2.30;;
59824;SDS011;45703;50.898;6.054;2023-08-31T05:51:26;6.78;;;2.20;;
59824;SDS011;45703;50.898;6.054;2023-08-31T05:53:54;8.40;;;2.50;;
59824;SDS011;45703;50.898;6.054;2023-08-31T05:56:19;6.43;;;2.33;;
59824;SDS011;45703;50.898;6.054;2023-08-31T05:58:45;6.50;;;2.20;;
59824;SDS011;45703;50.898;6.054;2023-08-31T06:01:10;6.28;;;2.15;;
59824;SDS011;45703;50.898;6.054;2023-08-31T06:03:35;6.38;;;2.20;;
59824;SDS011;45703;50.898;6.054;2023-08-31T06:06:10;7.05;;;2.08;;
59824;SDS011;45703;50.898;6.054;2023-08-31T06:08:37;6.43;;;2.13;;
59824;SDS011;45703;50.898;6.054;2023-08-31T06:11:08;7.78;;;2.10;;
59824;SDS011;45703;50.898;6.054;2023-08-31T06:13:33;7.18;;;2.00;;
59824;SDS011;45703;50.898;6.054;2023-08-31T06:15:59;7.15;;;1.88;;
59824;SDS011;45703;50.898;6.054;2023-08-31T06:18:25;6.75;;;2.33;;
59824;SDS011;45703;50.898;6.054;2023-08-31T06:20:51;6.13;;;2.10;;
59824;SDS011;45703;50.898;6.054;2023-08-31T06:23:16;8.32;;;2.60;;
59824;SDS011;45703;50.898;6.054;2023-08-31T06:25:47;7.35;;;2.03;;
59824;SDS011;45703;50.898;6.054;2023-08-31T06:28:12;7.25;;;1.90;;
59824;SDS011;45703;50.898;6.054;2023-08-31T06:30:41;6.57;;;1.95;;
59824;SDS011;45703;50.898;6.054;2023-08-31T06:33:11;6.47;;;1.73;;
59824;SDS011;45703;50.898;6.054;2023-08-31T06:35:42;7.10;;;2.00;;
59824;SDS011;45703;50.898;6.054;2023-08-31T06:38:20;6.20;;;2.00;;
59824;SDS011;45703;50.898;6.054;2023-08-31T06:40:58;9.05;;;2.17;;
59824;SDS011;45703;50.898;6.054;2023-08-31T06:43:36;6.88;;;2.00;;
59824;SDS011;45703;50.898;6.054;2023-08-31T06:46:18;7.53;;;2.03;;
59824;SDS011;45703;50.898;6.054;2023-08-31T06:48:44;7.07;;;2.08;;
59824;SDS011;45703;50.898;6.054;2023-08-31T06:51:09;6.05;;;2.10;;
59824;SDS011;45703;50.898;6.054;2023-08-31T06:53:35;7.18;;;2.03;;
59824;SDS011;45703;50.898;6.054;2023-08-31T06:56:00;6.30;;;1.80;;
59824;SDS011;45703;50.898;6.054;2023-08-31T06:58:25;6.68;;;2.10;;
59824;SDS011;45703;50.898;6.054;2023-08-31T07:00:51;9.20;;;2.20;;
59824;SDS011;45703;50.898;6.054;2023-08-31T07:03:16;9.27;;;2.20;;
59824;SDS011;45703;50.898;6.054;2023-08-31T07:05:42;6.53;;;1.83;;
59824;SDS011;45703;50.898;6.054;2023-08-31T07:08:08;7.00;;;2.28;;
59824;SDS011;45703;50.898;6.054;2023-08-31T07:10:34;8.10;;;2.00;;
59824;SDS011;45703;50.898;6.054;2023-08-31T07:13:03;5.93;;;1.75;;
59824;SDS011;45703;50.898;6.054;2023-08-31T07:15:29;6.35;;;1.65;;
59824;SDS011;45703;50.898;6.054;2023-08-31T07:17:57;8.40;;;1.85;;
59824;SDS011;45703;50.898;6.054;2023-08-31T07:20:22;6.60;;;1.90;;
59824;SDS011;45703;50.898;6.054;2023-08-31T07:22:50;7.45;;;1.60;;
59824;SDS011;45703;50.898;6.054;2023-08-31T07:25:22;7.35;;;2.20;;
59824;SDS011;45703;50.898;6.054;2023-08-31T07:27:47;8.30;;;1.60;;
59824;SDS011;45703;50.898;6.054;2023-08-31T07:30:20;7.75;;;1.92;;
59824;SDS011;45703;50.898;6.054;2023-08-31T07:32:46;6.40;;;1.90;;
59824;SDS011;45703;50.898;6.054;2023-08-31T07:35:14;6.13;;;1.83;;
59824;SDS011;45703;50.898;6.054;2023-08-31T07:37:47;6.50;;;1.92;;
59824;SDS011;45703;50.898;6.054;2023-08-31T07:40:15;7.95;;;1.80;;
59824;SDS011;45703;50.898;6.054;2023-08-31T07:42:40;8.07;;;2.08;;
59824;SDS011;45703;50.898;6.054;2023-08-31T07:45:09;8.50;;;2.53;;
59824;SDS011;45703;50.898;6.054;2023-08-31T07:47:37;6.82;;;1.85;;
59824;SDS011;45703;50.898;6.054;2023-08-31T07:50:02;5.88;;;1.90;;
59824;SDS011;45703;50.898;6.054;2023-08-31T07:52:28;6.63;;;1.77;;
59824;SDS011;45703;50.898;6.054;2023-08-31T07:54:54;7.43;;;2.13;;
59824;SDS011;45703;50.898;6.054;2023-08-31T07:57:19;9.23;;;2.40;;
59824;SDS011;45703;50.898;6.054;2023-08-31T07:59:47;6.95;;;2.05;;
59824;SDS011;45703;50.898;6.054;2023-08-31T08:02:15;6.40;;;2.05;;
59824;SDS011;45703;50.898;6.054;2023-08-31T08:04:45;6.50;;;2.00;;
59824;SDS011;45703;50.898;6.054;2023-08-31T08:07:14;7.38;;;2.65;;
59824;SDS011;45703;50.898;6.054;2023-08-31T08:09:39;8.10;;;2.42;;
59824;SDS011;45703;50.898;6.054;2023-08-31T08:12:04;8.98;;;2.33;;
59824;SDS011;45703;50.898;6.054;2023-08-31T08:14:30;8.82;;;2.53;;
59824;SDS011;45703;50.898;6.054;2023-08-31T08:16:58;10.65;;;3.05;;
59824;SDS011;45703;50.898;6.054;2023-08-31T08:19:25;8.45;;;2.60;;
59824;SDS011;45703;50.898;6.054;2023-08-31T08:21:53;7.93;;;2.55;;
59824;SDS011;45703;50.898;6.054;2023-08-31T08:24:18;7.82;;;2.85;;
59824;SDS011;45703;50.898;6.054;2023-08-31T08:26:46;6.90;;;2.55;;
59824;SDS011;45703;50.898;6.054;2023-08-31T08:29:11;8.15;;;2.75;;
59824;SDS011;45703;50.898;6.054;2023-08-31T08:31:39;8.20;;;2.75;;
59824;SDS011;45703;50.898;6.054;2023-08-31T08:34:12;10.27;;;3.15;;
59824;SDS011;45703;50.898;6.054;2023-08-31T08:36:37;9.18;;;3.45;;
59824;SDS011;45703;50.898;6.054;2023-08-31T08:39:03;10.38;;;2.92;;
59824;SDS011;45703;50.898;6.054;2023-08-31T08:41:36;9.52;;;3.25;;
59824;SDS011;45703;50.898;6.054;2023-08-31T08:44:03;10.40;;;3.20;;
59824;SDS011;45703;50.898;6.054;2023-08-31T08:46:37;8.95;;;3.47;;
59824;SDS011;45703;50.898;6.054;2023-08-31T08:49:08;10.13;;;3.05;;
59824;SDS011;45703;50.898;6.054;2023-08-31T08:51:45;7.90;;;3.10;;
59824;SDS011;45703;50.898;6.054;2023-08-31T08:54:13;9.45;;;2.88;;
59824;SDS011;45703;50.898;6.054;2023-08-31T08:56:39;8.02;;;2.72;;
59824;SDS011;45703;50.898;6.054;2023-08-31T08:59:06;9.05;;;3.25;;
59824;SDS011;45703;50.898;6.054;2023-08-31T09:01:32;8.93;;;3.03;;
59824;SDS011;45703;50.898;6.054;2023-08-31T09:04:00;9.45;;;3.00;;
59824;SDS011;45703;50.898;6.054;2023-08-31T09:06:25;7.95;;;3.13;;
59824;SDS011;45703;50.898;6.054;2023-08-31T09:08:56;7.57;;;2.97;;
59824;SDS011;45703;50.898;6.054;2023-08-31T09:11:24;9.15;;;2.97;;
59824;SDS011;45703;50.898;6.054;2023-08-31T09:13:50;8.63;;;2.90;;
59824;SDS011;45703;50.898;6.054;2023-08-31T09:16:26;7.85;;;2.80;;
59824;SDS011;45703;50.898;6.054;2023-08-31T09:18:53;7.50;;;2.88;;
59824;SDS011;45703;50.898;6.054;2023-08-31T09:21:44;8.63;;;3.17;;
59824;SDS011;45703;50.898;6.054;2023-08-31T09:24:39;8.48;;;3.35;;
59824;SDS011;45703;50.898;6.054;2023-08-31T09:27:05;10.05;;;3.20;;
59824;SDS011;45703;50.898;6.054;2023-08-31T09:29:31;8.02;;;3.22;;
59824;SDS011;45703;50.898;6.054;2023-08-31T09:31:57;7.22;;;2.55;;
59824;SDS011;45703;50.898;6.054;2023-08-31T09:34:22;8.98;;;3.00;;
59824;SDS011;45703;50.898;6.054;2023-08-31T09:37:03;9.15;;;3.10;;
59824;SDS011;45703;50.898;6.054;2023-08-31T09:39:37;9.77;;;3.40;;
59824;SDS011;45703;50.898;6.054;2023-08-31T09:42:05;8.40;;;3.03;;
59824;SDS011;45703;50.898;6.054;2023-08-31T09:44:34;8.93;;;3.22;;
59824;SDS011;45703;50.898;6.054;2023-08-31T09:47:09;10.20;;;3.15;;
59824;SDS011;45703;50.898;6.054;2023-08-31T09:49:35;8.60;;;3.17;;
59824;SDS011;45703;50.898;6.054;2023-08-31T09:52:03;9.63;;;3.10;;
59824;SDS011;45703;50.898;6.054;2023-08-31T09:54:30;10.20;;;3.75;;
59824;SDS011;45703;50.898;6.054;2023-08-31T09:56:56;9.38;;;3.45;;
59824;SDS011;45703;50.898;6.054;2023-08-31T09:59:29;8.27;;;3.00;;
59824;SDS011;45703;50.898;6.054;2023-08-31T10:02:00;8.15;;;2.97;;
59824;SDS011;45703;50.898;6.054;2023-08-31T10:04:29;8.52;;;3.10;;
59824;SDS011;45703;50.898;6.054;2023-08-31T10:06:57;9.63;;;3.15;;
59824;SDS011;45703;50.898;6.054;2023-08-31T10:09:25;9.40;;;3.55;;
59824;SDS011;45703;50.898;6.054;2023-08-31T10:11:58;10.55;;;3.08;;
59824;SDS011;45703;50.898;6.054;2023-08-31T10:14:24;8.13;;;2.90;;
59824;SDS011;45703;50.898;6.054;2023-08-31T10:16:55;7.10;;;2.58;;
59824;SDS011;45703;50.898;6.054;2023-08-31T10:19:22;10.32;;;2.45;;
59824;SDS011;45703;50.898;6.054;2023-08-31T10:21:48;6.80;;;2.70;;
59824;SDS011;45703;50.898;6.054;2023-08-31T10:24:14;7.47;;;2.90;;
59824;SDS011;45703;50.898;6.054;2023-08-31T10:26:40;7.63;;;2.55;;
59824;SDS011;45703;50.898;6.054;2023-08-31T10:29:05;8.88;;;2.90;;
59824;SDS011;45703;50.898;6.054;2023-08-31T10:31:33;9.25;;;3.20;;
59824;SDS011;45703;50.898;6.054;2023-08-31T10:34:03;8.43;;;2.85;;
59824;SDS011;45703;50.898;6.054;2023-08-31T10:36:39;9.57;;;3.00;;
59824;SDS011;45703;50.898;6.054;2023-08-31T10:39:13;10.00;;;3.50;;
59824;SDS011;45703;50.898;6.054;2023-08-31T10:41:42;8.18;;;2.58;;
59824;SDS011;45703;50.898;6.054;2023-08-31T10:44:20;9.05;;;2.90;;
59824;SDS011;45703;50.898;6.054;2023-08-31T10:46:47;8.05;;;2.67;;
59824;SDS011;45703;50.898;6.054;2023-08-31T10:49:14;8.07;;;2.80;;
59824;SDS011;45703;50.898;6.054;2023-08-31T10:51:41;7.32;;;2.75;;
59824;SDS011;45703;50.898;6.054;2023-08-31T10:54:08;7.88;;;2.53;;
59824;SDS011;45703;50.898;6.054;2023-08-31T10:57:18;6.82;;;2.22;;
59824;SDS011;45703;50.898;6.054;2023-08-31T10:59:43;8.65;;;3.08;;
59824;SDS011;45703;50.898;6.054;2023-08-31T11:05:01;7.78;;;2.60;;
59824;SDS011;45703;50.898;6.054;2023-08-31T11:07:32;7.25;;;2.80;;
59824;SDS011;45703;50.898;6.054;2023-08-31T11:10:09;8.52;;;3.05;;
59824;SDS011;45703;50.898;6.054;2023-08-31T11:12:48;6.63;;;2.53;;
59824;SDS011;45703;50.898;6.054;2023-08-31T11:15:18;10.43;;;3.17;;
59824;SDS011;45703;50.898;6.054;2023-08-31T11:17:50;8.95;;;2.80;;
59824;SDS011;45703;50.898;6.054;2023-08-31T11:20:17;9.43;;;3.00;;
59824;SDS011;45703;50.898;6.054;2023-08-31T11:22:47;8.07;;;2.65;;
59824;SDS011;45703;50.898;6.054;2023-08-31T11:25:19;8.60;;;2.72;;
59824;SDS011;45703;50.898;6.054;2023-08-31T11:30:20;8.18;;;3.25;;
59824;SDS011;45703;50.898;6.054;2023-08-31T11:32:50;8.95;;;3.30;;
59824;SDS011;45703;50.898;6.054;2023-08-31T11:35:16;7.32;;;3.33;;
59824;SDS011;45703;50.898;6.054;2023-08-31T11:37:45;8.10;;;3.65;;
59824;SDS011;45703;50.898;6.054;2023-08-31T11:40:14;9.77;;;3.70;;
59824;SDS011;45703;50.898;6.054;2023-08-31T11:42:40;7.63;;;3.55;;
59824;SDS011;45703;50.898;6.054;2023-08-31T11:45:06;8.75;;;3.50;;
59824;SDS011;45703;50.898;6.054;2023-08-31T11:47:33;8.75;;;3.17;;
59824;SDS011;45703;50.898;6.054;2023-08-31T11:49:59;8.05;;;3.17;;
59824;SDS011;45703;50.898;6.054;2023-08-31T11:52:28;8.05;;;2.70;;
59824;SDS011;45703;50.898;6.054;2023-08-31T11:54:55;9.40;;;2.85;;
59824;SDS011;45703;50.898;6.054;2023-08-31T11:57:24;6.75;;;2.40;;
59824;SDS011;45703;50.898;6.054;2023-08-31T11:59:51;7.72;;;2.85;;
59824;SDS011;45703;50.898;6.054;2023-08-31T12:02:18;6.95;;;2.85;;
59824;SDS011;45703;50.898;6.054;2023-08-31T12:04:44;9.13;;;2.63;;
59824;SDS011;45703;50.898;6.054;2023-08-31T12:07:11;9.20;;;3.10;;
59824;SDS011;45703;50.898;6.054;2023-08-31T12:09:41;8.98;;;2.72;;
59824;SDS011;45703;50.898;6.054;2023-08-31T12:12:07;8.20;;;2.70;;
59824;SDS011;45703;50.898;6.054;2023-08-31T12:14:37;9.32;;;2.88;;
59824;SDS011;45703;50.898;6.054;2023-08-31T12:17:11;8.30;;;2.67;;
59824;SDS011;45703;50.898;6.054;2023-08-31T12:19:37;9.57;;;3.13;;
59824;SDS011;45703;50.898;6.054;2023-08-31T12:22:06;9.48;;;3.00;;
59824;SDS011;45703;50.898;6.054;2023-08-31T12:24:40;7.20;;;2.55;;
59824;SDS011;45703;50.898;6.054;2023-08-31T12:27:07;8.82;;;3.13;;
59824;SDS011;45703;50.898;6.054;2023-08-31T12:29:35;8.35;;;2.88;;
59824;SDS011;45703;50.898;6.054;2023-08-31T12:32:01;9.38;;;3.25;;
59824;SDS011;45703;50.898;6.054;2023-08-31T12:34:30;8.18;;;2.92;;
59824;SDS011;45703;50.898;6.054;2023-08-31T12:36:58;8.70;;;3.20;;
59824;SDS011;45703;50.898;6.054;2023-08-31T12:39:27;9.43;;;3.20;;
59824;SDS011;45703;50.898;6.054;2023-08-31T12:41:53;6.22;;;2.70;;
59824;SDS011;45703;50.898;6.054;2023-08-31T12:44:21;7.93;;;2.47;;
59824;SDS011;45703;50.898;6.054;2023-08-31T12:46:47;7.95;;;2.80;;
59824;SDS011;45703;50.898;6.054;2023-08-31T12:49:12;7.80;;;2.50;;
59824;SDS011;45703;50.898;6.054;2023-08-31T12:51:40;7.88;;;2.75;;
59824;SDS011;45703;50.898;6.054;2023-08-31T12:54:05;6.60;;;2.50;;
59824;SDS011;45703;50.898;6.054;2023-08-31T12:56:33;8.48;;;2.70;;
59824;SDS011;45703;50.898;6.054;2023-08-31T12:58:58;9.80;;;2.60;;
59824;SDS011;45703;50.898;6.054;2023-08-31T13:01:31;7.60;;;2.40;;
59824;SDS011;45703;50.898;6.054;2023-08-31T13:03:59;9.38;;;2.90;;
59824;SDS011;45703;50.898;6.054;2023-08-31T13:06:28;8.32;;;2.83;;
59824;SDS011;45703;50.898;6.054;2023-08-31T13:08:53;8.88;;;2.45;;
59824;SDS011;45703;50.898;6.054;2023-08-31T13:11:19;7.30;;;2.90;;
59824;SDS011;45703;50.898;6.054;2023-08-31T13:13:48;9.70;;;2.80;;
59824;SDS011;45703;50.898;6.054;2023-08-31T13:16:22;8.40;;;2.80;;
59824;SDS011;45703;50.898;6.054;2023-08-31T13:18:50;7.85;;;2.60;;
59824;SDS011;45703;50.898;6.054;2023-08-31T13:21:15;7.53;;;2.65;;
59824;SDS011;45703;50.898;6.054;2023-08-31T13:23:41;6.30;;;2.20;;
59824;SDS011;45703;50.898;6.054;2023-08-31T13:26:09;7.75;;;2.55;;
59824;SDS011;45703;50.898;6.054;2023-08-31T13:28:34;7.43;;;2.60;;
59824;SDS011;45703;50.898;6.054;2023-08-31T13:31:00;8.15;;;2.45;;
59824;SDS011;45703;50.898;6.054;2023-08-31T13:33:26;6.38;;;2.17;;
59824;SDS011;45703;50.898;6.054;2023-08-31T13:35:58;6.85;;;2.10;;
59824;SDS011;45703;50.898;6.054;2023-08-31T13:38:24;5.45;;;1.80;;
59824;SDS011;45703;50.898;6.054;2023-08-31T13:40:53;7.32;;;2.13;;
59824;SDS011;45703;50.898;6.054;2023-08-31T13:43:24;6.78;;;2.13;;
59824;SDS011;45703;50.898;6.054;2023-08-31T13:45:52;7.03;;;2.22;;
59824;SDS011;45703;50.898;6.054;2023-08-31T13:48:20;6.53;;;2.15;;
59824;SDS011;45703;50.898;6.054;2023-08-31T13:50:47;6.22;;;2.00;;
59824;SDS011;45703;50.898;6.054;2023-08-31T13:53:12;6.30;;;2.05;;
59824;SDS011;45703;50.898;6.054;2023-08-31T13:55:38;8.57;;;2.28;;
59824;SDS011;45703;50.898;6.054;2023-08-31T13:58:04;6.63;;;1.98;;
59824;SDS011;45703;50.898;6.054;2023-08-31T14:00:35;7.18;;;2.15;;
59824;SDS011;45703;50.898;6.054;2023-08-31T14:03:01;6.13;;;1.90;;
59824;SDS011;45703;50.898;6.054;2023-08-31T14:05:31;6.65;;;1.90;;
59824;SDS011;45703;50.898;6.054;2023-08-31T14:07:57;7.07;;;1.90;;
59824;SDS011;45703;50.898;6.054;2023-08-31T14:10:23;6.63;;;2.28;;
59824;SDS011;45703;50.898;6.054;2023-08-31T14:12:51;8.15;;;2.20;;
59824;SDS011;45703;50.898;6.054;2023-08-31T14:15:17;6.75;;;1.80;;
59824;SDS011;45703;50.898;6.054;2023-08-31T14:17:42;8.13;;;2.17;;
59824;SDS011;45703;50.898;6.054;2023-08-31T14:20:08;6.90;;;2.25;;
59824;SDS011;45703;50.898;6.054;2023-08-31T14:22:36;5.85;;;1.77;;
59824;SDS011;45703;50.898;6.054;2023-08-31T14:25:02;7.18;;;1.90;;
59824;SDS011;45703;50.898;6.054;2023-08-31T14:27:28;7.30;;;2.20;;
59824;SDS011;45703;50.898;6.054;2023-08-31T14:29:55;7.43;;;1.80;;
59824;SDS011;45703;50.898;6.054;2023-08-31T14:32:22;7.47;;;2.08;;
59824;SDS011;45703;50.898;6.054;2023-08-31T14:34:48;6.18;;;1.70;;
59824;SDS011;45703;50.898;6.054;2023-08-31T14:37:18;6.57;;;1.95;;
59824;SDS011;45703;50.898;6.054;2023-08-31T14:39:53;5.85;;;1.50;;
59824;SDS011;45703;50.898;6.054;2023-08-31T14:42:20;8.05;;;1.80;;
59824;SDS011;45703;50.898;6.054;2023-08-31T14:44:46;7.90;;;2.00;;
59824;SDS011;45703;50.898;6.054;2023-08-31T14:47:12;6.82;;;1.75;;
59824;SDS011;45703;50.898;6.054;2023-08-31T14:49:40;5.85;;;1.65;;
59824;SDS011;45703;50.898;6.054;2023-08-31T14:52:06;6.70;;;2.05;;
59824;SDS011;45703;50.898;6.054;2023-08-31T14:54:32;7.03;;;1.98;;
59824;SDS011;45703;50.898;6.054;2023-08-31T14:56:58;5.80;;;2.00;;
59824;SDS011;45703;50.898;6.054;2023-08-31T14:59:24;7.13;;;1.80;;
59824;SDS011;45703;50.898;6.054;2023-08-31T15:01:49;6.38;;;1.98;;
59824;SDS011;45703;50.898;6.054;2023-08-31T15:04:17;8.48;;;2.00;;
59824;SDS011;45703;50.898;6.054;2023-08-31T15:06:42;6.57;;;1.90;;